createdAt,value
2022-09-13T00:01:21.493Z,100509.78
2022-09-13T00:03:47.856Z,100514.13
2022-09-13T00:06:16.602Z,100507.59
2022-09-13T00:08:43.750Z,100502.47
2022-09-13T00:11:19.699Z,100500.97
2022-09-13T00:13:46.434Z,100500.88
2022-09-13T00:16:16.127Z,100497.63
2022-09-13T00:18:42.714Z,100499.00
2022-09-13T00:21:12.138Z,100501.88
2022-09-13T00:23:38.891Z,100486.91
2022-09-13T00:26:11.913Z,100487.75
2022-09-13T00:28:38.832Z,100486.72
2022-09-13T00:31:39.984Z,100477.31
2022-09-13T00:34:06.315Z,100479.94
2022-09-13T00:36:32.633Z,100474.41
2022-09-13T00:39:00.302Z,100475.19
2022-09-13T00:41:26.782Z,100476.72
2022-09-13T00:43:59.094Z,100465.44
2022-09-13T00:46:48.195Z,100461.19
2022-09-13T00:49:22.177Z,100461.56
2022-09-13T00:51:56.694Z,100465.41
2022-09-13T00:54:29.370Z,100459.13
2022-09-13T00:57:00.334Z,100461.66
2022-09-13T00:59:32.624Z,100458.16
2022-09-13T01:02:01.806Z,100461.69
2022-09-13T01:04:30.179Z,100463.53
2022-09-13T01:07:00.708Z,100467.59
2022-09-13T01:09:28.273Z,100470.59
2022-09-13T01:12:10.060Z,100487.53
2022-09-13T01:14:37.106Z,100487.84
2022-09-13T01:17:04.121Z,100487.00
2022-09-13T01:19:30.503Z,100482.84
2022-09-13T01:22:35.305Z,100477.84
2022-09-13T01:25:46.832Z,100468.56
2022-09-13T01:28:38.793Z,100476.13
2022-09-13T01:31:18.776Z,100475.34
2022-09-13T01:34:00.275Z,100474.81
2022-09-13T01:36:43.659Z,100467.69
2022-09-13T01:39:17.579Z,100480.56
2022-09-13T01:42:08.771Z,100464.19
2022-09-13T01:44:50.396Z,100462.41
2022-09-13T01:47:25.511Z,100453.63
2022-09-13T01:50:20.063Z,100457.09
2022-09-13T01:52:57.466Z,100454.66
2022-09-13T01:55:34.317Z,100438.28
2022-09-13T01:58:24.271Z,100444.22
2022-09-13T02:01:04.535Z,100435.44
2022-09-13T02:03:35.558Z,100433.16
2022-09-13T02:06:08.462Z,100416.28
2022-09-13T02:08:56.862Z,100406.38
2022-09-13T02:11:23.927Z,100401.56
2022-09-13T02:13:58.530Z,100400.78
2022-09-13T02:16:35.971Z,100398.72
2022-09-13T02:19:13.471Z,100396.59
2022-09-13T02:21:44.802Z,100397.78
2022-09-13T02:24:15.862Z,100399.81
2022-09-13T02:26:46.539Z,100399.59
2022-09-13T02:29:17.733Z,100401.38
2022-09-13T02:31:52.014Z,100397.84
2022-09-13T02:34:22.953Z,100382.91
2022-09-13T02:36:52.403Z,100385.41
2022-09-13T02:39:24.285Z,100391.56
2022-09-13T02:42:32.456Z,100393.56
2022-09-13T02:44:59.639Z,100395.41
2022-09-13T02:47:35.414Z,100384.31
2022-09-13T02:50:04.750Z,100373.06
2022-09-13T02:52:56.895Z,100376.38
2022-09-13T02:55:29.302Z,100371.72
2022-09-13T02:58:14.418Z,100363.00
2022-09-13T03:00:41.318Z,100379.09
2022-09-13T03:03:12.127Z,100373.00
2022-09-13T03:05:38.634Z,100368.84
2022-09-13T03:08:06.956Z,100377.59
2022-09-13T03:10:54.573Z,100367.16
2022-09-13T03:13:58.191Z,100362.63
2022-09-13T03:16:48.702Z,100357.63
2022-09-13T03:19:28.993Z,100349.22
2022-09-13T03:22:14.418Z,100355.34
2022-09-13T03:25:06.379Z,100350.94
2022-09-13T03:28:02.640Z,100347.88
2022-09-13T03:30:30.524Z,100338.38
2022-09-13T03:33:07.019Z,100341.00
2022-09-13T03:35:42.870Z,100336.50
2022-09-13T03:38:16.355Z,100332.06
2022-09-13T03:40:49.812Z,100326.03
2022-09-13T03:43:37.447Z,100327.00
2022-09-13T03:46:12.086Z,100323.59
2022-09-13T03:48:42.570Z,100325.69
2022-09-13T03:51:11.318Z,100320.19
2022-09-13T03:53:43.158Z,100323.41
2022-09-13T03:56:20.647Z,100321.88
2022-09-13T03:58:47.920Z,100325.84
2022-09-13T04:01:17.993Z,100320.38
2022-09-13T04:03:44.283Z,100319.63
2022-09-13T04:06:10.638Z,100319.66
2022-09-13T04:08:36.974Z,100319.66
2022-09-13T04:11:03.279Z,100314.63
2022-09-13T04:13:29.683Z,100321.19
2022-09-13T04:16:00.935Z,100316.88
2022-09-13T04:18:27.662Z,100317.72
2022-09-13T04:20:55.746Z,100318.97
2022-09-13T04:23:22.668Z,100330.25
2022-09-13T04:25:49.023Z,100323.41
2022-09-13T04:28:17.074Z,100323.41
2022-09-13T04:30:47.837Z,100316.59
2022-09-13T04:33:14.970Z,100326.13
2022-09-13T04:35:41.304Z,100327.03
2022-09-13T04:38:08.784Z,100328.78
2022-09-13T04:40:36.491Z,100328.78
2022-09-13T04:43:02.977Z,100323.69
2022-09-13T04:45:29.715Z,100331.25
2022-09-13T04:47:59.195Z,100326.00
2022-09-13T04:50:25.949Z,100330.13
2022-09-13T04:52:55.238Z,100330.22
2022-09-13T04:55:21.811Z,100329.47
2022-09-13T04:57:52.295Z,100325.91
2022-09-13T05:00:18.672Z,100328.53
2022-09-13T05:02:44.952Z,100331.38
2022-09-13T05:05:11.239Z,100331.25
2022-09-13T05:07:37.601Z,100341.56
2022-09-13T05:10:04.478Z,100339.03
2022-09-13T05:12:31.066Z,100339.00
2022-09-13T05:14:57.391Z,100344.41
2022-09-13T05:17:23.742Z,100340.75
2022-09-13T05:19:50.077Z,100351.25
2022-09-13T05:22:16.366Z,100348.44
2022-09-13T05:24:42.975Z,100355.22
2022-09-13T05:27:10.860Z,100357.59
2022-09-13T05:29:37.162Z,100359.41
2022-09-13T05:32:04.238Z,100357.75
2022-09-13T05:34:30.523Z,100371.63
2022-09-13T05:36:56.856Z,100375.03
2022-09-13T05:39:54.326Z,100368.75
2022-09-13T05:42:09.442Z,100365.91
2022-09-13T05:44:35.716Z,100362.28
2022-09-13T05:47:02.020Z,100359.63
2022-09-13T05:49:28.322Z,100355.09
2022-09-13T05:51:54.606Z,100353.75
2022-09-13T05:54:20.935Z,100347.66
2022-09-13T05:56:47.395Z,100352.06
2022-09-13T05:59:17.071Z,100348.50
2022-09-13T06:01:43.545Z,100350.13
2022-09-13T06:04:12.270Z,100354.31
2022-09-13T06:06:38.582Z,100360.03
2022-09-13T06:09:06.764Z,100353.84
2022-09-13T06:11:33.165Z,100356.47
2022-09-13T06:13:59.832Z,100358.03
2022-09-13T06:16:26.188Z,100362.72
2022-09-13T06:18:52.516Z,100374.31
2022-09-13T06:21:24.654Z,100371.59
2022-09-13T06:23:54.091Z,100375.09
2022-09-13T06:26:25.208Z,100370.59
2022-09-13T06:28:54.252Z,100370.19
2022-09-13T06:31:22.694Z,100375.31
2022-09-13T06:33:49.033Z,100376.66
2022-09-13T06:36:18.332Z,100376.53
2022-09-13T06:38:50.908Z,100382.72
2022-09-13T06:41:19.928Z,100374.69
2022-09-13T06:43:47.868Z,100368.22
2022-09-13T06:46:20.435Z,100363.75
2022-09-13T06:48:50.577Z,100360.34
2022-09-13T06:51:19.778Z,100359.66
2022-09-13T06:53:49.196Z,100353.69
2022-09-13T06:56:18.732Z,100354.91
2022-09-13T06:58:47.806Z,100356.28
2022-09-13T07:01:19.836Z,100362.25
2022-09-13T07:03:54.347Z,100358.47
2022-09-13T07:06:22.766Z,100357.56
2022-09-13T07:08:51.561Z,100353.47
2022-09-13T07:11:19.793Z,100356.84
2022-09-13T07:13:54.177Z,100354.50
2022-09-13T07:16:23.094Z,100358.56
2022-09-13T07:18:54.322Z,100371.66
2022-09-13T07:21:22.061Z,100384.53
2022-09-13T07:23:49.160Z,100375.78
2022-09-13T07:26:15.719Z,100379.50
2022-09-13T07:28:47.305Z,100377.75
2022-09-13T07:31:17.018Z,100382.59
2022-09-13T07:33:44.416Z,100381.91
2022-09-13T07:36:12.716Z,100379.81
2022-09-13T07:38:41.010Z,100389.41
2022-09-13T07:41:11.870Z,100384.28
2022-09-13T07:43:38.385Z,100379.63
2022-09-13T07:46:07.954Z,100382.97
2022-09-13T07:48:36.353Z,100386.31
2022-09-13T07:51:10.092Z,100382.53
2022-09-13T07:53:37.906Z,100387.69
2022-09-13T07:56:19.987Z,100380.72
2022-09-13T07:58:48.268Z,100384.34
2022-09-13T08:01:18.196Z,100387.94
2022-09-13T08:03:50.199Z,100390.03
2022-09-13T08:06:16.572Z,100395.00
2022-09-13T08:08:42.906Z,100397.19
2022-09-13T08:11:16.087Z,100395.78
2022-09-13T08:13:42.419Z,100391.84
2022-09-13T08:16:08.797Z,100385.78
2022-09-13T08:18:35.179Z,100378.59
2022-09-13T08:21:01.896Z,100381.38
2022-09-13T08:23:28.353Z,100385.13
2022-09-13T08:25:54.873Z,100378.00
2022-09-13T08:28:26.891Z,100373.31
2022-09-13T08:30:54.184Z,100385.59
2022-09-13T08:33:20.623Z,100389.59
2022-09-13T08:35:52.459Z,100385.91
2022-09-13T08:38:19.894Z,100383.09
2022-09-13T08:40:51.430Z,100387.88
2022-09-13T08:43:40.263Z,100383.56
2022-09-13T08:46:27.093Z,100376.09
2022-09-13T08:48:58.454Z,100373.56
2022-09-13T08:51:43.617Z,100371.50
2022-09-13T08:54:14.910Z,100371.31
2022-09-13T08:56:46.356Z,100377.91
2022-09-13T08:59:46.210Z,100384.50
2022-09-13T09:02:40.245Z,100363.59
2022-09-13T09:05:21.678Z,100356.59
2022-09-13T09:08:02.488Z,100366.16
2022-09-13T09:10:44.417Z,100368.22
2022-09-13T09:13:24.615Z,100368.84
2022-09-13T09:15:54.842Z,100367.97
2022-09-13T09:18:28.630Z,100366.38
2022-09-13T09:20:57.060Z,100373.31
2022-09-13T09:23:28.658Z,100370.28
2022-09-13T09:26:13.326Z,100374.66
2022-09-13T09:28:39.606Z,100366.03
2022-09-13T09:31:20.411Z,100362.06
2022-09-13T09:33:55.730Z,100362.25
2022-09-13T09:36:53.804Z,100360.19
2022-09-13T09:39:20.298Z,100360.88
2022-09-13T09:41:46.697Z,100369.91
2022-09-13T09:44:20.408Z,100368.88
2022-09-13T09:47:00.906Z,100367.56
2022-09-13T09:49:57.811Z,100365.97
2022-09-13T09:52:40.010Z,100375.88
2022-09-13T09:55:29.116Z,100367.03
2022-09-13T09:58:08.096Z,100371.47
2022-09-13T10:00:50.755Z,100369.47
2022-09-13T10:03:29.023Z,100370.59
2022-09-13T10:06:14.994Z,100368.41
2022-09-13T10:08:43.918Z,100359.00
2022-09-13T10:11:10.627Z,100353.81
2022-09-13T10:13:38.148Z,100351.06
2022-09-13T10:16:07.540Z,100350.19
2022-09-13T10:18:45.093Z,100353.88
2022-09-13T10:21:17.645Z,100361.81
2022-09-13T10:23:46.890Z,100344.84
2022-09-13T10:26:17.656Z,100355.69
2022-09-13T10:29:10.159Z,100339.25
2022-09-13T10:31:42.793Z,100350.03
2022-09-13T10:34:22.217Z,100348.22
2022-09-13T10:36:59.558Z,100338.97
2022-09-13T10:39:27.651Z,100344.81
2022-09-13T10:42:07.587Z,100342.41
2022-09-13T10:44:45.138Z,100345.56
2022-09-13T10:47:19.738Z,100345.34
2022-09-13T10:49:48.946Z,100347.22
2022-09-13T10:52:44.645Z,100354.91
2022-09-13T10:55:20.189Z,100349.78
2022-09-13T10:57:47.596Z,100350.47
2022-09-13T11:00:20.712Z,100349.56
2022-09-13T11:02:53.676Z,100343.59
2022-09-13T11:05:38.580Z,100341.03
2022-09-13T11:08:26.705Z,100335.38
2022-09-13T11:11:22.833Z,100336.91
2022-09-13T11:14:16.984Z,100336.66
2022-09-13T11:17:00.540Z,100337.03
2022-09-13T11:19:40.138Z,100337.00
2022-09-13T11:22:16.571Z,100332.22
2022-09-13T11:25:01.995Z,100336.78
2022-09-13T11:27:34.547Z,100335.94
2022-09-13T11:30:21.293Z,100336.22
2022-09-13T11:33:17.507Z,100335.81
2022-09-13T11:36:02.275Z,100327.75
2022-09-13T11:38:43.645Z,100327.31
2022-09-13T11:41:30.948Z,100318.59
2022-09-13T11:44:17.260Z,100333.03
2022-09-13T11:47:01.880Z,100325.28
2022-09-13T11:49:48.719Z,100332.44
2022-09-13T11:52:52.709Z,100318.41
2022-09-13T11:55:40.566Z,100319.66
2022-09-13T11:58:29.050Z,100316.59
2022-09-13T12:01:01.512Z,100313.91
2022-09-13T12:03:50.225Z,100306.50
2022-09-13T12:06:23.323Z,100318.59
2022-09-13T12:08:54.406Z,100314.59
2022-09-13T12:11:31.430Z,100321.97
2022-09-13T12:14:02.463Z,100324.16
2022-09-13T12:16:36.371Z,100321.50
2022-09-13T12:19:16.827Z,100318.22
2022-09-13T12:21:45.170Z,100323.09
2022-09-13T12:24:32.035Z,100326.78
2022-09-13T12:27:10.565Z,100331.25
2022-09-13T12:29:50.260Z,100325.56
2022-09-13T12:32:18.349Z,100320.34
2022-09-13T12:35:08.403Z,100315.94
2022-09-13T12:37:59.358Z,100316.72
2022-09-13T12:40:31.870Z,100318.09
2022-09-13T12:43:32.010Z,100311.25
2022-09-13T12:46:24.249Z,100322.09
2022-09-13T12:49:13.759Z,100328.50
2022-09-13T12:51:53.281Z,100326.63
2022-09-13T12:55:06.171Z,100319.22
2022-09-13T12:57:45.896Z,100322.78
2022-09-13T13:00:29.122Z,100333.00
2022-09-13T13:03:12.703Z,100335.19
2022-09-13T13:05:46.042Z,100332.78
2022-09-13T13:08:21.519Z,100326.84
2022-09-13T13:11:03.438Z,100314.09
2022-09-13T13:13:42.905Z,100315.13
2022-09-13T13:16:34.049Z,100316.16
2022-09-13T13:19:03.757Z,100314.50
2022-09-13T13:21:38.965Z,100305.47
2022-09-13T13:24:17.280Z,100325.22
2022-09-13T13:26:54.234Z,100320.22
2022-09-13T13:29:23.199Z,100322.16
2022-09-13T13:32:03.783Z,100330.75
2022-09-13T13:34:38.755Z,100330.66
2022-09-13T13:37:31.497Z,100327.81
2022-09-13T13:40:22.748Z,100331.03
2022-09-13T13:42:49.436Z,100327.56
2022-09-13T13:45:18.806Z,100332.94
2022-09-13T13:48:09.665Z,100336.22
2022-09-13T13:51:11.654Z,100329.25
2022-09-13T13:53:39.239Z,100330.84
2022-09-13T13:56:22.489Z,100331.88
2022-09-13T13:58:58.719Z,100335.19
2022-09-13T14:01:30.186Z,100324.13
2022-09-13T14:04:38.056Z,100333.72
2022-09-13T14:07:30.763Z,100332.44
2022-09-13T14:10:12.797Z,100326.50
2022-09-13T14:13:16.833Z,100333.28
2022-09-13T14:15:59.107Z,100329.38
2022-09-13T14:18:47.230Z,100329.72
2022-09-13T14:21:25.153Z,100330.03
2022-09-13T14:23:51.510Z,100330.31
2022-09-13T14:26:17.872Z,100334.69
2022-09-13T14:28:44.379Z,100332.75
2022-09-13T14:31:20.239Z,100336.00
2022-09-13T14:33:46.699Z,100334.38
2022-09-13T14:36:22.186Z,100332.38
2022-09-13T14:39:01.789Z,100335.06
2022-09-13T14:41:37.596Z,100322.84
2022-09-13T14:44:26.360Z,100330.88
2022-09-13T14:47:17.002Z,100336.63
2022-09-13T14:49:52.758Z,100339.06
2022-09-13T14:52:39.395Z,100336.53
2022-09-13T14:55:14.036Z,100338.06
2022-09-13T14:57:46.386Z,100337.94
2022-09-13T15:00:22.129Z,100327.88
2022-09-13T15:02:52.132Z,100338.78
2022-09-13T15:05:22.433Z,100330.06
2022-09-13T15:07:49.187Z,100326.75
2022-09-13T15:10:15.427Z,100332.97
2022-09-13T15:12:58.520Z,100332.03
2022-09-13T15:15:30.890Z,100333.19
2022-09-13T15:18:15.720Z,100329.66
2022-09-13T15:20:55.081Z,100333.81
2022-09-13T15:23:39.195Z,100330.50
2022-09-13T15:26:11.358Z,100334.50
2022-09-13T15:28:50.938Z,100349.47
2022-09-13T15:31:22.424Z,100330.34
2022-09-13T15:33:49.832Z,100331.75
2022-09-13T15:36:28.168Z,100329.28
2022-09-13T15:39:09.714Z,100330.63
2022-09-13T15:41:38.738Z,100342.97
2022-09-13T15:44:07.803Z,100336.53
2022-09-13T15:46:55.544Z,100336.97
2022-09-13T15:49:25.530Z,100349.19
2022-09-13T15:51:59.311Z,100343.81
2022-09-13T15:54:40.851Z,100350.44
2022-09-13T15:57:10.395Z,100341.66
2022-09-13T15:59:36.727Z,100341.06
2022-09-13T16:02:18.454Z,100359.59
2022-09-13T16:04:44.879Z,100340.97
2022-09-13T16:07:11.191Z,100348.00
2022-09-13T16:09:38.696Z,100346.53
2022-09-13T16:12:05.400Z,100351.47
2022-09-13T16:14:31.943Z,100352.50
2022-09-13T16:17:02.639Z,100329.78
2022-09-13T16:19:28.923Z,100334.13
2022-09-13T16:21:55.369Z,100342.13
2022-09-13T16:24:21.849Z,100337.06
2022-09-13T16:26:48.142Z,100346.69
2022-09-13T16:29:14.477Z,100346.84
2022-09-13T16:31:40.883Z,100355.06
2022-09-13T16:34:07.313Z,100351.81
2022-09-13T16:36:34.007Z,100354.59
2022-09-13T16:39:00.646Z,100365.59
2022-09-13T16:41:26.945Z,100352.13
2022-09-13T16:43:56.386Z,100354.13
2022-09-13T16:46:31.701Z,100357.06
2022-09-13T16:48:58.687Z,100351.69
2022-09-13T16:51:26.811Z,100341.56
2022-09-13T16:53:53.873Z,100346.59
2022-09-13T16:56:23.723Z,100343.03
2022-09-13T16:58:51.614Z,100346.28
2022-09-13T17:01:20.930Z,100346.03
2022-09-13T17:03:48.486Z,100337.22
2022-09-13T17:06:20.433Z,100347.66
2022-09-13T17:08:55.869Z,100351.28
2022-09-13T17:11:26.920Z,100356.00
2022-09-13T17:13:54.285Z,100353.59
2022-09-13T17:16:29.610Z,100351.66
2022-09-13T17:18:57.826Z,100350.19
2022-09-13T17:21:25.203Z,100351.88
2022-09-13T17:23:51.624Z,100346.47
2022-09-13T17:26:18.064Z,100352.19
2022-09-13T17:28:44.356Z,100353.25
2022-09-13T17:31:10.794Z,100350.78
2022-09-13T17:33:37.362Z,100362.34
2022-09-13T17:36:06.424Z,100357.03
2022-09-13T17:38:33.008Z,100360.66
2022-09-13T17:41:04.278Z,100360.88
2022-09-13T17:43:31.010Z,100356.53
2022-09-13T17:45:58.023Z,100358.31
2022-09-13T17:48:24.494Z,100352.22
2022-09-13T17:50:50.814Z,100358.38
2022-09-13T17:53:17.107Z,100351.63
2022-09-13T17:55:47.802Z,100349.75
2022-09-13T17:58:14.657Z,100350.47
2022-09-13T18:00:41.468Z,100348.75
2022-09-13T18:03:07.920Z,100355.63
2022-09-13T18:05:34.324Z,100362.75
2022-09-13T18:08:00.931Z,100359.94
2022-09-13T18:10:49.188Z,100364.03
2022-09-13T18:13:13.454Z,100369.25
2022-09-13T18:15:39.848Z,100354.66
2022-09-13T18:18:06.159Z,100353.03
2022-09-13T18:20:32.428Z,100366.53
2022-09-13T18:22:58.732Z,100363.91
2022-09-13T18:25:26.214Z,100372.63
2022-09-13T18:27:52.522Z,100370.50
2022-09-13T18:30:18.844Z,100371.91
2022-09-13T18:32:45.148Z,100365.81
2022-09-13T18:35:11.512Z,100370.16
2022-09-13T18:37:37.788Z,100371.91
2022-09-13T18:40:06.366Z,100366.75
2022-09-13T18:42:33.462Z,100375.78
2022-09-13T18:44:59.828Z,100370.31
2022-09-13T18:47:26.145Z,100364.13
2022-09-13T18:49:52.446Z,100367.88
2022-09-13T18:52:18.731Z,100371.31
2022-09-13T18:54:45.049Z,100379.91
2022-09-13T18:57:11.379Z,100366.25
2022-09-13T18:59:37.765Z,100363.09
2022-09-13T19:02:04.212Z,100361.41
2022-09-13T19:04:31.868Z,100355.50
2022-09-13T19:06:58.218Z,100365.44
2022-09-13T19:09:24.856Z,100364.47
2022-09-13T19:11:53.271Z,100371.56
2022-09-13T19:14:25.325Z,100365.41
2022-09-13T19:16:53.710Z,100363.03
2022-09-13T19:19:20.436Z,100363.94
2022-09-13T19:21:47.067Z,100376.56
2022-09-13T19:24:18.283Z,100372.31
2022-09-13T19:26:46.428Z,100367.91
2022-09-13T19:29:15.760Z,100368.63
2022-09-13T19:31:44.233Z,100377.94
2022-09-13T19:34:12.061Z,100373.81
2022-09-13T19:36:39.485Z,100374.44
2022-09-13T19:39:07.261Z,100373.63
2022-09-13T19:41:34.211Z,100376.06
2022-09-13T19:44:01.913Z,100368.34
2022-09-13T19:46:31.388Z,100375.94
2022-09-13T19:48:59.346Z,100371.59
2022-09-13T19:51:28.171Z,100366.06
2022-09-13T19:53:57.289Z,100368.34
2022-09-13T19:56:35.755Z,100360.09
2022-09-13T19:59:02.825Z,100363.28
2022-09-13T20:01:33.350Z,100362.31
2022-09-13T20:04:03.036Z,100365.03
2022-09-13T20:06:34.681Z,100357.06
2022-09-13T20:09:01.376Z,100354.78
2022-09-13T20:11:28.889Z,100353.94
2022-09-13T20:13:59.414Z,100341.78
2022-09-13T20:16:37.159Z,100345.84
2022-09-13T20:19:18.339Z,100344.41
2022-09-13T20:21:51.229Z,100337.53
2022-09-13T20:24:18.595Z,100338.50
2022-09-13T20:26:44.871Z,100339.84
2022-09-13T20:29:11.917Z,100334.97
2022-09-13T20:31:38.243Z,100330.59
2022-09-13T20:34:07.220Z,100335.91
2022-09-13T20:36:35.747Z,100334.25
2022-09-13T20:39:03.833Z,100336.44
2022-09-13T20:41:31.435Z,100342.88
2022-09-13T20:44:01.307Z,100336.88
2022-09-13T20:46:29.212Z,100340.59
2022-09-13T20:48:55.652Z,100338.09
2022-09-13T20:51:25.138Z,100343.38
2022-09-13T20:53:57.307Z,100332.00
2022-09-13T20:56:24.494Z,100338.81
2022-09-13T20:58:57.492Z,100334.84
2022-09-13T21:01:24.713Z,100331.72
2022-09-13T21:03:52.945Z,100334.25
2022-09-13T21:06:21.231Z,100339.72
2022-09-13T21:08:49.917Z,100333.75
2022-09-13T21:11:22.043Z,100327.94
2022-09-13T21:13:52.191Z,100327.47
2022-09-13T21:16:24.060Z,100330.22
2022-09-13T21:18:51.386Z,100338.09
2022-09-13T21:21:20.265Z,100333.81
2022-09-13T21:23:47.614Z,100331.59
2022-09-13T21:26:16.593Z,100343.03
2022-09-13T21:28:44.171Z,100339.72
2022-09-13T21:31:16.084Z,100344.16
2022-09-13T21:33:47.135Z,100337.09
2022-09-13T21:36:13.883Z,100339.03
2022-09-13T21:38:40.558Z,100336.44
2022-09-13T21:41:12.642Z,100334.03
2022-09-13T21:43:39.658Z,100333.16
2022-09-13T21:46:07.093Z,100333.03
2022-09-13T21:48:35.228Z,100340.41
2022-09-13T21:51:16.017Z,100338.09
2022-09-13T21:53:42.727Z,100341.63
2022-09-13T21:56:11.653Z,100341.66
2022-09-13T21:58:38.958Z,100341.63
2022-09-13T22:01:13.318Z,100340.75
2022-09-13T22:03:41.738Z,100339.28
2022-09-13T22:06:09.479Z,100338.19
2022-09-13T22:08:42.517Z,100334.84
2022-09-13T22:11:14.556Z,100330.50
2022-09-13T22:13:45.392Z,100334.03
2022-09-13T22:16:20.997Z,100328.75
2022-09-13T22:18:49.812Z,100327.53
2022-09-13T22:21:18.385Z,100336.53
2022-09-13T22:23:44.805Z,100329.84
2022-09-13T22:26:14.057Z,100329.66
2022-09-13T22:28:40.574Z,100328.63
2022-09-13T22:31:09.644Z,100323.84
2022-09-13T22:33:37.018Z,100321.91
2022-09-13T22:36:07.060Z,100327.03
2022-09-13T22:38:34.719Z,100324.59
2022-09-13T22:41:04.072Z,100328.19
2022-09-13T22:43:30.381Z,100330.94
2022-09-13T22:46:05.951Z,100328.19
2022-09-13T22:48:33.518Z,100332.63
2022-09-13T22:50:59.852Z,100330.84
2022-09-13T22:53:26.819Z,100326.94
2022-09-13T22:55:53.759Z,100330.47
2022-09-13T22:58:20.112Z,100324.41
2022-09-13T23:00:47.030Z,100320.16
2022-09-13T23:03:13.984Z,100327.00
2022-09-13T23:05:40.373Z,100321.19
2022-09-13T23:08:06.678Z,100328.53
2022-09-13T23:10:32.998Z,100326.91
2022-09-13T23:13:00.382Z,100326.56
2022-09-13T23:15:26.648Z,100327.72
2022-09-13T23:17:53.083Z,100331.31
2022-09-13T23:20:20.104Z,100325.31
2022-09-13T23:22:46.678Z,100320.31
2022-09-13T23:25:13.087Z,100327.03
2022-09-13T23:27:39.528Z,100330.84
2022-09-13T23:30:06.249Z,100326.25
2022-09-13T23:32:32.926Z,100319.41
2022-09-13T23:34:59.211Z,100320.94
2022-09-13T23:37:25.539Z,100323.53
2022-09-13T23:39:52.229Z,100321.91
2022-09-13T23:42:18.697Z,100316.16
2022-09-13T23:44:45.010Z,100320.53
2022-09-13T23:47:11.264Z,100312.72
2022-09-13T23:49:37.522Z,100316.22
2022-09-13T23:52:04.137Z,100313.59
2022-09-13T23:54:30.430Z,100315.41
2022-09-13T23:56:56.753Z,100315.34
2022-09-13T23:59:23.035Z,100310.13
